Ana Sayfa
METAR-TAF:

METAR-TAF

Havaalanları :

Baker City, Oregon, Amerika Birleşik Devletleri

Enlem: 44-50-14N, Boylam: 117-48-33W, yükseklik: 1028 m

Güncel hava durumu gözlemi

Rapor saat 21:53 UTC de 1 saat ve 1 dakika önce yapıldı.
Rüzgar kuzey/kuzeybatıdan 16 kt ve 21 kt'a kadar ani rüzgarlar
Sıcaklık 26°C
Nem 30%
Basınç 1019 hPa
Görüş mesafesi: 16.1 km
Açık gökyüzü

METAR: KBKE 252153Z AUTO 34016G21KT 10SM CLR 26/07 A3009 RMK AO2 SLP170 T02610067

Saat: 15:54 (22:54 UTC)

Tahmin

Rapor saat 17:20 UTC de 5 saat ve 34 dakika önce yapıldı.
Ayın 25'si saat 18 UTC'den ayın 26'si saat 18 UTC'ye kadar geçerli Tahmin
Rüzgar kuzeybatıdan 15 kt ve 25 kt'a kadar ani rüzgarlar
Görüş mesafesi: 10 km
25000 ft yükseklikte parçalı bulutlu
Ayın 26'si saat 0400 UTC'den
Rüzgar kuzeybatıdan 7 kt
Görüş mesafesi: 10 km
Açık gökyüzü

TAF: KBKE 251720Z 2518/2618 32015G25KT P6SM SCT250 FM260400 32007KT P6SM SKC

4.000'den fazla havaalanı için hava durumu gözlemleri ve tahminleri (METAR ve TAF raporları).

Kullanılabilir istasyonlar harita üzerinde sarı ve kırmızı noktalarla gösterilir.

İstasyonun adını görmek için fareyi noktanın üzerinde gezdirin.

Sonrasında hava gözlem ve tahminlerini görmek için tıklayın.

Haritayı değiştirmek için: yaklaştırmak için siyah artı işaretli yeşil düğmeye ve uzaklaştırmak için de eksi işaretli düğmeye hızla tıklayın; bitişik haritalar için yeşil okları kullanın.


METAR-TAF: